Time;durP1;ratioP1;P1;durP2;ratioP2;P2;SDS_P1;SDS_P2;PMS_P1;PMS_P2;Temp;Humidity;BMP_temperature;BMP_pressure;BME280_temperature;BME280_humidity;BME280_pressure;Samples;Min_cycle;Max_cycle;Signal;HPM_P1;HPM_P2
2024/01/20 00:02:14;;;;;;;22.17;14.63;;;;;;;8.12;72.65;100424.56;5070571;28;20036;-80
2024/01/20 00:04:39;;;;;;;22.20;14.20;;;;;;;8.32;72.33;100485.56;5071132;28;20074;-80
2024/01/20 00:07:05;;;;;;;25.27;15.15;;;;;;;8.31;72.27;100499.09;5071145;28;20032;-82
2024/01/20 00:09:30;;;;;;;23.25;14.75;;;;;;;8.34;72.34;100513.13;5070458;28;20029;-79
2024/01/20 00:11:56;;;;;;;21.08;14.13;;;;;;;8.23;72.07;100508.50;5070351;28;20028;-79
2024/01/20 00:14:21;;;;;;;33.25;15.32;;;;;;;8.23;71.74;100518.38;5071642;28;20405;-80
2024/01/20 00:16:47;;;;;;;18.73;13.43;;;;;;;8.20;71.38;100518.59;5071775;28;20036;-80
2024/01/20 00:19:13;;;;;;;21.48;12.68;;;;;;;8.28;71.22;100537.69;5074276;28;20384;-81
2024/01/20 00:21:39;;;;;;;18.85;11.90;;;;;;;8.16;71.05;100527.84;5070805;28;20476;-80
2024/01/20 00:24:05;;;;;;;18.88;12.77;;;;;;;8.15;71.03;100526.13;5080330;28;20020;-83
2024/01/20 00:26:31;;;;;;;21.45;11.50;;;;;;;8.06;70.55;100534.81;5094999;28;20028;-83
2024/01/20 00:28:56;;;;;;;23.13;11.77;;;;;;;8.04;70.18;100532.25;5081550;28;20028;-81
2024/01/20 00:31:22;;;;;;;14.90;10.68;;;;;;;8.08;70.68;100541.78;5068786;28;20051;-80
2024/01/20 00:33:47;;;;;;;14.25;10.27;;;;;;;8.00;70.07;100529.91;5069934;28;20188;-81
2024/01/20 00:36:13;;;;;;;21.75;9.88;;;;;;;8.01;69.67;100537.00;5069820;28;20088;-80
2024/01/20 00:38:39;;;;;;;11.25;7.43;;;;;;;7.78;69.01;100527.06;5069468;28;20479;-82
2024/01/20 00:41:06;;;;;;;13.32;7.40;;;;;;;7.74;69.41;100521.06;5069494;28;20043;-81
2024/01/20 00:43:32;;;;;;;18.98;7.55;;;;;;;7.44;70.16;100524.09;5069361;28;20124;-81
2024/01/20 00:45:58;;;;;;;13.50;8.55;;;;;;;7.36;70.45;100547.84;5069616;28;20048;-80
2024/01/20 00:48:23;;;;;;;7.20;6.50;;;;;;;7.23;70.88;100516.69;5069589;28;20083;-80
2024/01/20 00:50:50;;;;;;;7.60;6.30;;;;;;;6.98;70.88;100514.84;5084977;28;20115;-81
2024/01/20 00:53:16;;;;;;;8.68;6.05;;;;;;;6.94;71.17;100524.06;5083911;28;20036;-79
2024/01/20 00:55:41;;;;;;;6.40;5.50;;;;;;;6.70;71.76;100531.03;5070153;28;20028;-80
2024/01/20 00:58:07;;;;;;;10.32;5.30;;;;;;;6.63;71.96;100540.44;5071119;28;20024;-81
2024/01/20 01:00:32;;;;;;;11.90;5.25;;;;;;;6.53;72.93;100525.03;5072063;28;20028;-82
2024/01/20 01:02:58;;;;;;;6.25;5.32;;;;;;;6.47;72.77;100535.25;5075436;28;20029;-80
2024/01/20 01:05:24;;;;;;;5.90;4.72;;;;;;;6.39;73.06;100538.41;5073250;28;20065;-80
2024/01/20 01:07:49;;;;;;;5.93;5.13;;;;;;;6.33;73.32;100568.19;5070212;28;20401;-80
2024/01/20 01:10:16;;;;;;;6.82;4.75;;;;;;;6.35;73.30;100558.28;5068856;28;20029;-80
2024/01/20 01:12:41;;;;;;;5.68;3.70;;;;;;;6.40;73.20;100566.84;5079279;28;20060;-82
2024/01/20 01:15:07;;;;;;;4.68;4.07;;;;;;;6.40;72.80;100556.16;5094176;28;20028;-81
2024/01/20 01:17:33;;;;;;;11.18;4.10;;;;;;;6.23;72.22;100548.41;5094194;28;20024;-81
2024/01/20 01:19:58;;;;;;;5.38;4.03;;;;;;;6.35;72.59;100574.31;5069814;28;20029;-81
2024/01/20 01:22:24;;;;;;;4.45;4.00;;;;;;;6.13;72.28;100541.94;5069234;28;20028;-80
2024/01/20 01:24:49;;;;;;;4.03;3.63;;;;;;;6.37;72.37;100593.75;5069097;28;20031;-82
2024/01/20 01:27:16;;;;;;;9.38;3.65;;;;;;;6.25;72.63;100589.22;5068932;28;20495;-81
2024/01/20 01:29:41;;;;;;;4.88;4.30;;;;;;;6.35;72.98;100595.69;5069688;28;20032;-81
2024/01/20 01:32:07;;;;;;;57.78;10.63;;;;;;;6.36;73.31;100607.22;5070206;28;20523;-81
2024/01/20 01:34:32;;;;;;;9.93;4.15;;;;;;;6.40;73.49;100590.91;5068672;28;20068;-81
2024/01/20 01:36:58;;;;;;;8.07;4.45;;;;;;;6.45;73.43;100591.44;5069176;28;20031;-81
2024/01/20 01:39:26;;;;;;;10.05;4.22;;;;;;;6.58;73.10;100613.75;5069073;28;20036;-80
2024/01/20 01:41:52;;;;;;;7.47;4.43;;;;;;;6.67;72.88;100622.09;5071036;28;20025;-81
2024/01/20 01:44:17;;;;;;;4.32;3.92;;;;;;;6.60;72.37;100621.69;5068774;28;20472;-79
2024/01/20 01:46:43;;;;;;;4.03;3.60;;;;;;;6.73;71.63;100637.78;5069215;28;20093;-80
2024/01/20 01:49:09;;;;;;;5.85;3.50;;;;;;;6.55;71.30;100613.94;5071820;28;20075;-82
2024/01/20 01:51:35;;;;;;;5.38;3.38;;;;;;;6.53;70.33;100596.31;5072456;28;20035;-80
2024/01/20 01:54:04;;;;;;;6.55;3.55;;;;;;;6.58;70.34;100623.56;5079490;28;20028;-80
2024/01/20 01:56:30;;;;;;;4.50;3.80;;;;;;;6.40;70.44;100609.59;5075169;28;20035;-79
2024/01/20 01:58:57;;;;;;;8.88;3.97;;;;;;;6.52;70.44;100630.16;5077284;28;20036;-81
2024/01/20 02:01:23;;;;;;;3.70;3.40;;;;;;;6.54;70.18;100664.81;5077473;28;20028;-81
2024/01/20 02:03:49;;;;;;;3.90;3.60;;;;;;;6.58;69.87;100655.63;5079545;28;20028;-80
2024/01/20 02:06:16;;;;;;;4.30;3.90;;;;;;;6.44;70.28;100664.53;5088235;28;20113;-82
2024/01/20 02:08:41;;;;;;;4.47;3.50;;;;;;;6.30;70.33;100677.91;5087266;28;20040;-81
2024/01/20 02:11:08;;;;;;;3.88;3.58;;;;;;;6.28;70.76;100671.81;5074254;28;20712;-80
2024/01/20 02:13:34;;;;;;;4.05;3.50;;;;;;;6.30;70.83;100714.47;5077452;28;20032;-81
2024/01/20 02:16:01;;;;;;;4.20;3.80;;;;;;;5.92;70.78;100669.63;5068331;28;20396;-80
2024/01/20 02:18:27;;;;;;;12.82;4.28;;;;;;;6.19;70.92;100692.88;5067701;28;20047;-80
2024/01/20 02:20:53;;;;;;;9.93;4.20;;;;;;;6.29;71.41;100684.22;5067710;28;20029;-81
2024/01/20 02:23:19;;;;;;;5.53;3.88;;;;;;;6.19;71.16;100682.19;5067498;28;20431;-82
2024/01/20 02:25:46;;;;;;;5.05;4.15;;;;;;;5.93;71.75;100667.81;5067743;28;20119;-81
2024/01/20 02:28:12;;;;;;;4.75;4.35;;;;;;;6.12;71.88;100673.72;5066465;28;20032;-80
2024/01/20 02:30:37;;;;;;;6.00;4.70;;;;;;;6.12;71.80;100689.72;5067628;28;20032;-80
2024/01/20 02:33:03;;;;;;;5.32;4.82;;;;;;;5.94;71.79;100696.22;5067448;28;20056;-80
2024/01/20 02:35:28;;;;;;;8.82;4.65;;;;;;;5.79;71.65;100686.44;5048501;28;20638;-81
2024/01/20 02:37:54;;;;;;;10.43;4.47;;;;;;;5.74;72.02;100715.22;5067653;28;20081;-81
2024/01/20 02:40:20;;;;;;;4.75;4.35;;;;;;;5.73;72.31;100724.16;5066168;28;20119;-79
2024/01/20 02:42:45;;;;;;;10.05;4.68;;;;;;;5.48;71.98;100688.28;5067841;28;20078;-81
2024/01/20 02:45:11;;;;;;;9.05;5.10;;;;;;;5.81;71.81;100768.13;5068153;28;20540;-80
2024/01/20 02:47:37;;;;;;;6.03;5.03;;;;;;;5.78;71.93;100759.47;5068585;28;20116;-81
2024/01/20 02:50:03;;;;;;;5.78;4.80;;;;;;;5.82;71.73;100772.50;5069999;28;20028;-81
2024/01/20 02:52:28;;;;;;;6.35;4.82;;;;;;;5.85;71.55;100766.13;5069835;28;20347;-81
2024/01/20 02:54:54;;;;;;;6.88;5.68;;;;;;;5.81;71.55;100788.63;5078791;28;20024;-81
2024/01/20 02:57:19;;;;;;;5.45;4.95;;;;;;;5.86;72.04;100790.09;5093569;28;20039;-82
2024/01/20 02:59:45;;;;;;;6.40;5.80;;;;;;;5.98;72.39;100799.19;5079159;28;20029;-81
2024/01/20 03:02:10;;;;;;;5.55;5.03;;;;;;;6.02;71.87;100803.41;5067811;28;20122;-81
2024/01/20 03:04:36;;;;;;;4.90;4.50;;;;;;;6.11;71.99;100821.53;5067705;28;20078;-80
2024/01/20 03:07:01;;;;;;;6.72;5.53;;;;;;;6.08;71.50;100800.38;5067103;28;20021;-80
2024/01/20 03:09:27;;;;;;;5.47;4.60;;;;;;;6.17;70.96;100821.16;5067370;28;20086;-82
2024/01/20 03:11:52;;;;;;;5.95;5.35;;;;;;;6.06;70.69;100817.41;5066241;28;20023;-81
2024/01/20 03:14:18;;;;;;;6.18;5.50;;;;;;;5.96;70.98;100817.13;5067626;28;20028;-80
2024/01/20 03:16:43;;;;;;;6.80;5.97;;;;;;;6.07;70.30;100841.34;5067092;28;20043;-81
2024/01/20 03:19:09;;;;;;;7.53;5.53;;;;;;;5.98;70.37;100816.06;5070802;28;20036;-81
2024/01/20 03:21:34;;;;;;;9.35;6.38;;;;;;;6.10;70.93;100833.16;5071182;28;20021;-80
2024/01/20 03:24:00;;;;;;;7.28;5.40;;;;;;;6.03;71.15;100815.78;5070791;28;20052;-80
2024/01/20 03:26:26;;;;;;;6.88;5.80;;;;;;;5.85;71.90;100812.41;5071157;28;20077;-80
2024/01/20 03:28:51;;;;;;;7.10;6.07;;;;;;;5.88;72.70;100801.53;5070795;28;20093;-80
2024/01/20 03:31:17;;;;;;;6.35;5.75;;;;;;;5.82;73.03;100819.69;5071042;28;20496;-80
2024/01/20 03:33:43;;;;;;;9.75;5.70;;;;;;;5.68;73.28;100822.31;5071368;28;20046;-80
2024/01/20 03:36:09;;;;;;;8.98;5.15;;;;;;;5.70;73.31;100836.41;5071071;28;20060;-79
2024/01/20 03:38:35;;;;;;;6.72;6.13;;;;;;;5.63;73.51;100827.03;5070811;28;20028;-81
2024/01/20 03:41:00;;;;;;;7.40;6.60;;;;;;;5.28;73.77;100794.41;5073161;28;20028;-79
2024/01/20 03:43:26;;;;;;;6.93;6.00;;;;;;;5.51;73.79;100815.25;5086858;28;20025;-80
2024/01/20 03:45:53;;;;;;;7.93;6.65;;;;;;;5.38;74.27;100830.28;5092456;28;20113;-80
2024/01/20 03:48:19;;;;;;;11.05;6.55;;;;;;;5.31;75.20;100835.09;5081269;28;20088;-82
2024/01/20 03:50:44;;;;;;;9.80;7.57;;;;;;;5.26;75.18;100825.63;5070969;28;20031;-80
2024/01/20 03:53:10;;;;;;;11.32;7.20;;;;;;;5.08;75.12;100803.50;5071139;28;20028;-80
2024/01/20 03:55:36;;;;;;;9.50;7.65;;;;;;;5.35;74.90;100831.28;5070295;28;20071;-81
2024/01/20 03:58:02;;;;;;;8.98;6.97;;;;;;;5.30;75.23;100833.34;5070624;28;20039;-81
2024/01/20 04:00:27;;;;;;;7.72;6.72;;;;;;;5.28;75.22;100845.94;5070528;28;20033;-81
2024/01/20 04:02:53;;;;;;;11.35;9.40;;;;;;;5.31;75.70;100826.22;5070262;28;20154;-79
2024/01/20 04:05:18;;;;;;;10.27;9.18;;;;;;;5.32;75.74;100847.47;5070177;28;20089;-80
2024/01/20 04:07:44;;;;;;;10.85;7.75;;;;;;;4.88;75.57;100796.63;5069927;28;20024;-81
2024/01/20 04:10:09;;;;;;;9.38;8.23;;;;;;;5.24;76.05;100855.03;5070064;28;20028;-80
2024/01/20 04:12:39;;;;;;;9.30;8.10;;;;;;;5.25;76.21;100872.75;5069088;28;20032;-79
2024/01/20 04:15:05;;;;;;;9.32;7.93;;;;;;;5.26;76.65;100874.47;5070228;28;20043;-81
2024/01/20 04:17:31;;;;;;;10.85;7.78;;;;;;;5.20;76.33;100858.81;5069958;28;20674;-79
2024/01/20 04:19:57;;;;;;;8.57;7.65;;;;;;;5.45;76.33;100909.84;5070036;28;20039;-81
2024/01/20 04:22:22;;;;;;;12.38;8.95;;;;;;;5.26;75.80;100878.97;5068778;28;20120;-79
2024/01/20 04:24:48;;;;;;;9.75;8.20;;;;;;;5.53;74.81;100938.78;5070220;28;20028;-80
2024/01/20 04:27:13;;;;;;;9.73;7.32;;;;;;;5.28;73.75;100941.06;5070633;28;20024;-82
2024/01/20 04:29:39;;;;;;;10.63;8.57;;;;;;;5.14;73.63;100951.59;5071600;28;20525;-80
2024/01/20 04:32:05;;;;;;;13.20;8.20;;;;;;;5.27;74.12;100966.84;5072018;28;20113;-79
2024/01/20 04:34:30;;;;;;;11.40;8.93;;;;;;;5.20;74.22;100970.78;5079598;28;20030;-82
2024/01/20 04:36:56;;;;;;;12.15;9.07;;;;;;;5.34;74.28;100988.72;5094234;28;20071;-83
2024/01/20 04:39:21;;;;;;;11.65;8.38;;;;;;;5.28;74.76;100984.59;5082121;28;20469;-81
2024/01/20 04:41:47;;;;;;;10.32;7.68;;;;;;;5.21;74.36;100971.66;5069828;28;20027;-81
2024/01/20 04:44:13;;;;;;;10.43;8.23;;;;;;;5.38;74.30;100991.13;5069626;28;20043;-80
2024/01/20 04:46:38;;;;;;;12.63;7.88;;;;;;;5.37;73.87;100984.09;5069415;28;20505;-79
2024/01/20 04:49:04;;;;;;;11.60;8.48;;;;;;;5.45;73.09;100978.31;5069390;28;20033;-82
2024/01/20 04:51:29;;;;;;;13.45;8.60;;;;;;;5.43;73.06;100989.09;5069428;28;20024;-82
2024/01/20 04:53:54;;;;;;;10.00;7.72;;;;;;;5.26;72.65;100997.13;5069645;28;20480;-79
2024/01/20 04:56:22;;;;;;;9.95;7.80;;;;;;;5.50;72.94;101011.81;5069352;28;20086;-80
2024/01/20 04:58:51;;;;;;;11.10;8.57;;;;;;;5.36;72.19;101017.03;5069303;28;20495;-81
2024/01/20 05:01:18;;;;;;;11.25;8.65;;;;;;;5.47;72.01;101016.47;5069178;28;20032;-80
2024/01/20 05:03:43;;;;;;;11.25;8.13;;;;;;;5.32;72.37;101027.97;5069397;28;20033;-80
2024/01/20 05:06:09;;;;;;;10.13;7.72;;;;;;;5.40;72.36;101025.72;5068623;28;20021;-80
2024/01/20 05:08:34;;;;;;;9.32;7.85;;;;;;;5.40;71.90;101047.06;5069068;28;20051;-79
2024/01/20 05:11:00;;;;;;;11.82;9.20;;;;;;;5.40;72.45;101044.41;5069175;28;20032;-80
2024/01/20 05:13:26;;;;;;;9.48;7.70;;;;;;;5.48;72.22;101045.72;5068804;28;20024;-81
2024/01/20 05:15:53;;;;;;;15.57;8.10;;;;;;;5.36;71.41;101051.69;5069632;28;20031;-80
2024/01/20 05:18:19;;;;;;;10.20;7.95;;;;;;;5.23;71.62;101050.63;5070409;28;20054;-80
2024/01/20 05:20:44;;;;;;;11.23;8.70;;;;;;;5.02;72.33;101045.53;5071618;28;20479;-79
2024/01/20 05:23:10;;;;;;;9.65;8.02;;;;;;;5.17;72.55;101050.94;5068664;28;20029;-79
2024/01/20 05:25:35;;;;;;;13.48;6.93;;;;;;;4.90;72.28;101057.69;5091671;28;20032;-81
2024/01/20 05:28:01;;;;;;;11.13;7.78;;;;;;;4.88;72.46;101054.25;5093619;28;20032;-82
2024/01/20 05:30:26;;;;;;;11.27;7.53;;;;;;;5.11;72.54;101088.59;5070187;28;20035;-80
2024/01/20 05:32:52;;;;;;;12.73;8.38;;;;;;;5.10;72.86;101076.22;5069098;28;20030;-81
2024/01/20 05:35:18;;;;;;;10.48;7.60;;;;;;;4.87;72.38;101065.84;5083870;28;20056;-81
2024/01/20 05:37:44;;;;;;;9.63;7.82;;;;;;;4.95;72.57;101075.19;5066165;28;20032;-81
2024/01/20 05:40:10;;;;;;;11.15;7.72;;;;;;;4.78;72.41;101031.69;5067649;28;20047;-80
2024/01/20 05:42:36;;;;;;;14.00;9.13;;;;;;;5.11;72.29;101096.59;5069034;28;20035;-81
2024/01/20 05:45:01;;;;;;;9.73;8.73;;;;;;;5.14;71.99;101104.44;5069398;28;20514;-81
2024/01/20 05:47:27;;;;;;;11.98;7.95;;;;;;;5.02;72.01;101091.72;5068463;28;20086;-82
2024/01/20 05:49:52;;;;;;;13.88;8.75;;;;;;;4.93;71.99;101057.53;5068918;28;20033;-82
2024/01/20 05:52:18;;;;;;;7.47;6.13;;;;;;;4.91;71.37;101086.09;5068587;28;20436;-82
2024/01/20 05:54:43;;;;;;;10.70;7.82;;;;;;;4.98;71.79;101098.19;5068173;28;20115;-82
2024/01/20 05:57:09;;;;;;;10.13;7.47;;;;;;;4.45;71.96;101030.72;5068330;28;20029;-82
2024/01/20 05:59:35;;;;;;;9.23;7.45;;;;;;;4.48;73.11;101086.50;5067222;28;20036;-82
2024/01/20 06:02:00;;;;;;;12.00;7.78;;;;;;;4.31;73.75;101074.03;5068585;28;20021;-81
2024/01/20 06:04:26;;;;;;;10.52;7.57;;;;;;;4.32;74.35;101035.78;5070153;28;20042;-80
2024/01/20 06:06:53;;;;;;;13.93;8.40;;;;;;;4.55;74.30;101040.00;5088838;28;20035;-81
2024/01/20 06:09:18;;;;;;;9.23;6.97;;;;;;;4.13;73.46;101038.47;5073980;28;20051;-82
2024/01/20 06:11:44;;;;;;;9.52;6.95;;;;;;;4.11;74.08;101042.16;5072962;28;20029;-82
2024/01/20 06:14:09;;;;;;;8.25;6.05;;;;;;;4.38;73.93;101084.28;5076234;28;20052;-81
2024/01/20 06:16:38;;;;;;;8.30;6.72;;;;;;;4.04;74.02;101044.25;5093291;28;20025;-82
2024/01/20 06:19:04;;;;;;;17.40;6.35;;;;;;;4.28;73.81;101087.47;5084253;28;20094;-82
2024/01/20 06:21:30;;;;;;;10.45;6.82;;;;;;;4.20;73.85;101087.84;5069233;28;20032;-81
2024/01/20 06:23:55;;;;;;;10.55;6.78;;;;;;;4.11;74.60;101080.28;5069191;28;20475;-82
2024/01/20 06:26:21;;;;;;;13.70;9.63;;;;;;;4.07;73.97;101092.00;5068670;28;20016;-81
2024/01/20 06:28:46;;;;;;;9.35;7.68;;;;;;;3.90;73.31;101083.09;5067444;28;20035;-82
2024/01/20 06:31:26;;;;;;;10.80;7.85;;;;;;;4.15;73.84;101147.56;5068276;28;20021;-83
2024/01/20 06:33:52;;;;;;;9.50;7.38;;;;;;;4.14;74.17;101164.44;5067867;28;20041;-80
2024/01/20 06:36:19;;;;;;;9.90;7.55;;;;;;;3.87;74.26;101152.41;5067939;28;20060;-82
2024/01/20 06:38:45;;;;;;;9.45;7.07;;;;;;;4.03;74.30;101170.28;5066370;28;20479;-83
2024/01/20 06:41:11;;;;;;;8.65;7.18;;;;;;;4.25;74.57;101197.63;5068129;28;20043;-82
2024/01/20 06:43:37;;;;;;;9.23;6.72;;;;;;;4.11;74.38;101199.19;5067953;28;20021;-83
2024/01/20 06:46:02;;;;;;;8.32;6.68;;;;;;;4.13;74.73;101210.63;5067481;28;20056;-82
2024/01/20 06:48:32;;;;;;;8.35;7.32;;;;;;;4.01;74.34;101217.38;5067766;28;20035;-82
2024/01/20 06:50:59;;;;;;;12.02;7.03;;;;;;;3.87;74.70;101195.84;5066566;28;20115;-82
2024/01/20 06:53:26;;;;;;;20.83;11.25;;;;;;;4.08;74.96;101236.59;5071827;28;20016;-82
2024/01/20 06:55:52;;;;;;;8.45;7.55;;;;;;;3.90;75.25;101232.97;5072232;28;20055;-80
2024/01/20 06:58:17;;;;;;;14.18;9.60;;;;;;;4.00;75.34;101246.72;5072389;28;20029;-80
2024/01/20 07:00:43;;;;;;;10.57;7.55;;;;;;;3.93;75.82;101248.78;5072790;28;20025;-82
2024/01/20 07:03:08;;;;;;;12.40;7.20;;;;;;;3.92;76.33;101259.50;5072970;28;20032;-81
2024/01/20 07:05:34;;;;;;;13.82;8.05;;;;;;;3.85;76.63;101261.59;5088980;28;20021;-81
2024/01/20 07:07:59;;;;;;;11.55;8.52;;;;;;;4.14;76.57;101279.78;5094149;28;20021;-83
2024/01/20 07:10:25;;;;;;;13.85;9.20;;;;;;;4.09;77.00;101289.78;5075745;28;20062;-80
2024/01/20 07:12:50;;;;;;;10.07;8.10;;;;;;;4.14;76.39;101294.88;5072116;28;20059;-81
2024/01/20 07:15:16;;;;;;;12.38;9.27;;;;;;;4.18;76.30;101281.38;5071426;28;20031;-81
2024/01/20 07:17:41;;;;;;;11.60;8.98;;;;;;;4.15;76.49;101278.84;5071427;28;20032;-80
2024/01/20 07:20:07;;;;;;;15.25;8.57;;;;;;;3.96;76.64;101255.78;5071943;28;20980;-81
2024/01/20 07:22:33;;;;;;;9.75;8.20;;;;;;;4.10;76.66;101267.53;5070954;28;20021;-81
2024/01/20 07:24:59;;;;;;;11.98;8.00;;;;;;;4.09;76.33;101260.50;5071327;28;20021;-82
2024/01/20 07:27:24;;;;;;;11.38;8.25;;;;;;;4.09;76.17;101254.31;5071615;28;20121;-81
2024/01/20 07:29:50;;;;;;;13.55;9.07;;;;;;;4.11;76.45;101284.38;5070775;28;20450;-80
2024/01/20 07:32:15;;;;;;;10.82;7.95;;;;;;;4.00;76.72;101244.94;5070911;28;20043;-82
2024/01/20 07:34:41;;;;;;;13.13;9.07;;;;;;;4.10;76.81;101272.84;5068133;28;20091;-81
2024/01/20 07:37:06;;;;;;;14.18;8.80;;;;;;;4.09;77.45;101265.81;5071323;28;20036;-81
2024/01/20 07:39:32;;;;;;;13.18;7.43;;;;;;;4.01;76.80;101248.44;5071389;28;21001;-81
2024/01/20 07:41:57;;;;;;;11.13;8.43;;;;;;;4.04;77.02;101261.59;5071166;28;20056;-82
2024/01/20 07:44:23;;;;;;;18.92;11.55;;;;;;;4.07;77.52;101274.78;5070656;28;20640;-80
2024/01/20 07:46:49;;;;;;;8.45;6.97;;;;;;;4.01;76.77;101278.59;5071254;28;20400;-83
2024/01/20 07:49:14;;;;;;;15.85;8.85;;;;;;;3.96;77.16;101267.28;5071456;28;20537;-82
2024/01/20 07:51:40;;;;;;;14.65;8.85;;;;;;;3.77;77.41;101245.94;5073138;28;20025;-81
2024/01/20 07:54:05;;;;;;;11.95;9.02;;;;;;;3.81;77.56;101254.66;5072433;28;20032;-80
2024/01/20 07:56:31;;;;;;;14.65;8.07;;;;;;;3.79;77.97;101245.88;5094577;28;20029;-84
2024/01/20 07:58:57;;;;;;;15.20;10.73;;;;;;;3.74;78.20;101242.53;5092496;28;20063;-84
2024/01/20 08:01:22;;;;;;;14.57;9.10;;;;;;;3.63;77.95;101242.16;5072337;28;20603;-82
2024/01/20 08:03:48;;;;;;;13.18;9.15;;;;;;;3.70;78.15;101272.88;5070408;28;20027;-82
2024/01/20 08:06:13;;;;;;;13.50;8.27;;;;;;;3.51;78.66;101279.91;5071625;28;20458;-80
2024/01/20 08:08:39;;;;;;;12.32;9.68;;;;;;;3.64;78.74;101299.75;5071067;28;20074;-82
2024/01/20 08:11:05;;;;;;;14.32;9.35;;;;;;;3.66;78.83;101300.53;5070686;28;20051;-82
2024/01/20 08:13:30;;;;;;;15.57;9.40;;;;;;;3.57;78.83;101285.84;5070905;28;20063;-82
2024/01/20 08:15:56;;;;;;;13.43;7.80;;;;;;;3.53;79.33;101294.00;5070173;28;20116;-80
2024/01/20 08:18:21;;;;;;;15.10;8.23;;;;;;;3.56;79.55;101300.06;5070277;28;20028;-81
2024/01/20 08:20:47;;;;;;;11.50;7.97;;;;;;;3.71;79.27;101306.53;5070386;28;20017;-82
2024/01/20 08:23:12;;;;;;;15.32;8.13;;;;;;;3.77;79.19;101324.88;5070533;28;20054;-82
2024/01/20 08:25:38;;;;;;;12.05;8.05;;;;;;;3.69;79.02;101324.34;5071249;28;20532;-81
2024/01/20 08:28:03;;;;;;;11.68;9.15;;;;;;;3.79;78.50;101350.47;5069220;28;20024;-80
2024/01/20 08:30:29;;;;;;;11.65;8.27;;;;;;;3.64;78.46;101366.25;5069940;28;20043;-79
2024/01/20 08:32:54;;;;;;;12.77;8.90;;;;;;;3.74;78.76;101380.88;5070472;28;20055;-78
2024/01/20 08:35:20;;;;;;;20.02;10.77;;;;;;;3.78;78.40;101393.13;5069994;28;20090;-81
2024/01/20 08:37:45;;;;;;;11.90;8.70;;;;;;;3.74;78.73;101386.19;5070464;28;20463;-79
2024/01/20 08:40:11;;;;;;;14.98;8.35;;;;;;;3.64;78.09;101392.84;5071338;28;20032;-78
2024/01/20 08:42:36;;;;;;;10.73;7.78;;;;;;;3.54;77.06;101378.19;5071513;28;20086;-78
2024/01/20 08:45:03;;;;;;;12.65;8.10;;;;;;;3.48;76.72;101389.06;5075282;28;20025;-81
2024/01/20 08:47:28;;;;;;;13.10;8.52;;;;;;;3.12;76.96;101355.00;5091686;28;20028;-80
2024/01/20 08:49:54;;;;;;;16.95;7.93;;;;;;;3.38;78.03;101395.66;5082978;28;20544;-79
2024/01/20 08:52:19;;;;;;;12.70;8.43;;;;;;;3.44;78.29;101406.06;5070050;28;20116;-79
2024/01/20 08:54:45;;;;;;;12.20;7.45;;;;;;;3.22;77.89;101380.31;5069819;28;20095;-79
2024/01/20 08:57:10;;;;;;;11.27;8.15;;;;;;;3.37;78.43;101399.22;5069412;28;21013;-79
2024/01/20 08:59:36;;;;;;;12.10;7.22;;;;;;;3.30;78.09;101399.47;5069343;28;20025;-80
2024/01/20 09:02:03;;;;;;;13.35;8.73;;;;;;;3.39;77.97;101394.75;5069443;28;20072;-80
2024/01/20 09:04:29;;;;;;;17.45;10.07;;;;;;;3.44;78.00;101398.06;5069483;28;20407;-78
2024/01/20 09:06:55;;;;;;;14.55;9.30;;;;;;;3.22;78.10;101388.28;5069372;28;20028;-80
2024/01/20 09:09:21;;;;;;;16.88;8.35;;;;;;;3.21;78.54;101401.66;5069296;28;20032;-78
2024/01/20 09:11:46;;;;;;;13.40;7.30;;;;;;;3.11;78.42;101390.50;5067851;28;20028;-79
2024/01/20 09:14:12;;;;;;;16.95;8.48;;;;;;;2.95;78.80;101367.22;5069290;28;20056;-78
2024/01/20 09:16:37;;;;;;;12.77;7.32;;;;;;;3.07;79.93;101403.97;5068260;28;20033;-78
2024/01/20 09:19:03;;;;;;;14.75;7.63;;;;;;;3.05;80.33;101400.50;5069104;28;20412;-80
2024/01/20 09:21:29;;;;;;;12.05;8.70;;;;;;;3.03;80.00;101410.31;5069119;28;20028;-79
2024/01/20 09:23:54;;;;;;;14.20;8.57;;;;;;;2.93;80.58;101388.56;5069020;28;20699;-79
2024/01/20 09:26:20;;;;;;;10.52;6.70;;;;;;;3.09;80.46;101402.09;5069373;28;20024;-79
2024/01/20 09:28:45;;;;;;;9.98;6.43;;;;;;;2.90;80.35;101406.41;5069919;28;20028;-79
2024/01/20 09:31:11;;;;;;;12.27;8.27;;;;;;;2.98;80.71;101413.16;5070859;28;20024;-80
2024/01/20 09:33:36;;;;;;;13.38;7.88;;;;;;;2.99;80.11;101414.91;5070280;28;20439;-78
2024/01/20 09:36:03;;;;;;;9.95;7.88;;;;;;;3.13;80.77;101407.25;5079940;28;20078;-79
2024/01/20 09:38:29;;;;;;;9.68;7.22;;;;;;;3.14;80.60;101411.66;5090962;28;20035;-80
2024/01/20 09:40:58;;;;;;;9.38;7.57;;;;;;;3.10;80.13;101388.78;5077448;28;20029;-79
2024/01/20 09:43:24;;;;;;;10.55;8.32;;;;;;;3.17;79.61;101400.91;5049905;28;20032;-78
2024/01/20 09:45:52;;;;;;;11.23;8.27;;;;;;;3.24;79.64;101418.31;5068325;28;20103;-80
2024/01/20 09:48:18;;;;;;;9.68;7.03;;;;;;;3.26;78.47;101420.94;5068503;28;20017;-78
2024/01/20 09:50:44;;;;;;;10.80;7.95;;;;;;;3.06;77.90;101437.63;5068566;28;20638;-80
2024/01/20 09:53:17;;;;;;;16.35;8.00;;;;;;;2.82;78.58;101393.38;5067170;28;20111;-77
2024/01/20 09:55:44;;;;;;;14.07;8.30;;;;;;;2.95;79.30;101407.94;5068053;28;20059;-79
2024/01/20 09:58:16;;;;;;;9.77;6.72;;;;;;;2.93;78.98;101407.16;5068274;28;20488;-79
2024/01/20 10:00:42;;;;;;;9.90;7.10;;;;;;;3.18;78.28;101412.41;5068446;28;20054;-78
2024/01/20 10:03:09;;;;;;;10.48;7.82;;;;;;;3.12;78.00;101434.75;5068266;28;20435;-79
2024/01/20 10:05:35;;;;;;;14.30;9.43;;;;;;;3.23;78.21;101445.84;5068192;28;20458;-80
2024/01/20 10:08:01;;;;;;;8.57;7.05;;;;;;;3.17;78.54;101443.44;5066684;28;20036;-79
2024/01/20 10:10:27;;;;;;;13.07;8.55;;;;;;;3.18;78.01;101428.34;5068064;28;20028;-80
2024/01/20 10:12:54;;;;;;;9.27;7.30;;;;;;;3.37;78.06;101450.63;5068259;28;20389;-80
2024/01/20 10:15:28;;;;;;;8.32;6.55;;;;;;;3.36;77.34;101461.34;5068679;28;20025;-80
2024/01/20 10:17:55;;;;;;;10.18;7.00;;;;;;;3.30;76.55;101446.50;5068958;28;20028;-79
2024/01/20 10:20:25;;;;;;;12.18;5.93;;;;;;;3.35;76.53;101448.94;5069485;28;20035;-80
2024/01/20 10:22:51;;;;;;;19.83;9.48;;;;;;;3.39;76.80;101456.78;5068267;28;20079;-79
2024/01/20 10:25:21;;;;;;;10.10;7.43;;;;;;;3.43;76.92;101439.75;5070082;28;20025;-80
2024/01/20 10:27:48;;;;;;;13.57;8.18;;;;;;;3.42;76.89;101446.00;5106818;28;20024;-81
2024/01/20 10:30:17;;;;;;;15.38;9.00;;;;;;;3.31;76.19;101434.91;5085327;28;20029;-80
2024/01/20 10:32:46;;;;;;;13.05;8.07;;;;;;;3.36;76.39;101442.72;5068110;28;20027;-80
2024/01/20 10:35:13;;;;;;;19.70;11.68;;;;;;;3.16;76.89;101415.09;5067981;28;20186;-80
2024/01/20 10:37:44;;;;;;;16.25;9.93;;;;;;;3.26;77.21;101416.50;5067919;28;20071;-79
2024/01/20 10:40:15;;;;;;;13.40;9.07;;;;;;;3.29;76.65;101437.66;5067628;28;20024;-79
2024/01/20 10:42:45;;;;;;;15.35;10.20;;;;;;;3.23;76.87;101445.84;5067516;28;20033;-79
2024/01/20 10:45:18;;;;;;;12.52;8.63;;;;;;;3.09;76.90;101408.28;5067447;28;20510;-79
2024/01/20 10:48:07;;;;;;;15.80;10.57;;;;;;;3.13;77.21;101420.53;5067630;28;20432;-80
2024/01/20 10:50:35;;;;;;;11.45;7.55;;;;;;;2.95;77.48;101396.44;5067550;28;20032;-80
2024/01/20 10:53:03;;;;;;;15.40;10.80;;;;;;;3.17;78.11;101437.25;5067272;28;20505;-80
2024/01/20 10:55:30;;;;;;;13.73;8.23;;;;;;;3.12;77.41;101424.09;5066345;28;20452;-80
2024/01/20 10:57:57;;;;;;;28.75;15.00;;;;;;;2.75;76.92;101379.47;5049608;28;20044;-79
2024/01/20 11:00:23;;;;;;;11.65;8.60;;;;;;;2.90;77.79;101412.59;5067347;28;20016;-78
2024/01/20 11:02:49;;;;;;;10.18;8.23;;;;;;;2.89;78.18;101432.09;5067424;28;20024;-80
2024/01/20 11:05:20;;;;;;;16.52;9.52;;;;;;;2.85;77.78;101450.84;5067850;28;20039;-80
2024/01/20 11:08:02;;;;;;;14.73;9.68;;;;;;;2.84;78.11;101451.78;5067900;28;20031;-79
2024/01/20 11:10:28;;;;;;;14.90;9.50;;;;;;;2.85;78.40;101453.50;5068657;28;20025;-78
2024/01/20 11:13:04;;;;;;;15.25;9.57;;;;;;;2.78;78.25;101459.97;5084327;28;20036;-78
2024/01/20 11:15:30;;;;;;;11.75;8.40;;;;;;;2.62;78.20;101433.09;5068996;28;20071;-82
2024/01/20 11:17:55;;;;;;;15.20;9.95;;;;;;;2.61;78.39;101444.63;5090127;28;20024;-80
2024/01/20 11:20:21;;;;;;;17.30;10.05;;;;;;;2.58;78.97;101431.47;5086190;28;20399;-82
2024/01/20 11:22:47;;;;;;;15.82;9.88;;;;;;;2.48;79.46;101435.34;5068105;28;20032;-79